Terminal Aerodrome Forecast
Issued by NWS

Home | Current Version | Previous Version | Text Only | Print | Product List | Glossary On
Versions: 1 2 3 4 5 6 7 8 9 10 11 12 13
000
FTUS45 KRIW 251127
TAFLND
TAF
KLND 251127Z 2512/2612 29007KT P6SM BKN070
     FM251400 03007KT 4SM -SHSNRA SCT010 BKN015
     FM252100 35006KT P6SM VCSH SCT020 BKN035
     FM260100 23007KT P6SM SCT050=

USA.gov is the U.S. government's official web portal to all federal, state and local government web resources and services.